Winifred, Montana
Current Conditions -  °F | °C
As of 6:54 AM on Monday 20 Oct 2014 (Local Time) from KLWT Reporting Station
Clear Clear  
Wind Chill: 40°   Ceiling: Unl
Heat Index: 44°   Visibility: 10mi
Dew Point: 30°   Wind: 7mph
Humidity: 58%   Direction: 130°SE
Pressure: 29.92"   Gusts: NA
Location:  47.56°N, 109.37°W
Report Text: KLWT 201254Z AUTO 13006KT 10SM CLR 07/M01 A2992 RMK AO2 SLP126 T00671011 $
Loading
Personal Weather Stations






























Interactive Weather Map
Tropical Storm Tracking
New forecast layout! Learn more

10-Day Weather Forecast

Advertisements
Track Severe Weather on mobile